Time;durP1;ratioP1;P1;durP2;ratioP2;P2;SDS_P1;SDS_P2;PMS_P1;PMS_P2;Temp;Humidity;BMP_temperature;BMP_pressure;BME280_temperature;BME280_humidity;BME280_pressure;Samples;Min_cycle;Max_cycle;Signal;HPM_P1;HPM_P2
2023/01/21 00:01:47;;;;;;;;;;;;;;;;;;5031570;28;19908;-69
2023/01/21 00:04:13;;;;;;;;;;;;;;;;;;5031752;28;20278;-69
2023/01/21 00:06:39;;;;;;;;;;;;;;;;;;5032026;28;19912;-69
2023/01/21 00:09:06;;;;;;;;;;;;;;;;;;5031819;28;19919;-69
2023/01/21 00:11:32;;;;;;;;;;;;;;;;;;5031804;28;20459;-69
2023/01/21 00:13:58;;;;;;;;;;;;;;;;;;5032278;28;19905;-69
2023/01/21 00:16:24;;;;;;;;;;;;;;;;;;5031556;28;19915;-69
2023/01/21 00:18:50;;;;;;;;;;;;;;;;;;5031769;28;20263;-69
2023/01/21 00:21:16;;;;;;;;;;;;;;;;;;5030715;28;19919;-69
2023/01/21 00:23:43;;;;;;;;;;;;;;;;;;5032322;28;19923;-69
2023/01/21 00:26:09;;;;;;;;;;;;;;;;;;5035281;28;20283;-69
2023/01/21 00:28:36;;;;;;;;;;;;;;;;;;5035239;28;19911;-68
2023/01/21 00:31:02;;;;;;;;;;;;;;;;;;5035230;28;19909;-69
2023/01/21 00:33:28;;;;;;;;;;;;;;;;;;5034414;28;19905;-69
2023/01/21 00:35:54;;;;;;;;;;;;;;;;;;5035238;28;20304;-69
2023/01/21 00:38:20;;;;;;;;;;;;;;;;;;5035365;28;19904;-69
2023/01/21 00:40:47;;;;;;;;;;;;;;;;;;5035022;28;19912;-69
2023/01/21 00:43:13;;;;;;;;;;;;;;;;;;5033470;28;19916;-69
2023/01/21 00:45:39;;;;;;;;;;;;;;;;;;5034995;28;19909;-69
2023/01/21 00:48:05;;;;;;;;;;;;;;;;;;5034968;28;20365;-69
2023/01/21 00:50:31;;;;;;;;;;;;;;;;;;5035367;28;19908;-69
2023/01/21 00:52:58;;;;;;;;;;;;;;;;;;5034522;28;19966;-69
2023/01/21 00:55:24;;;;;;;;;;;;;;;;;;5034762;28;19909;-69
2023/01/21 00:57:51;;;;;;;;;;;;;;;;;;5033626;28;19905;-69
2023/01/21 01:00:18;;;;;;;;;;;;;;;;;;5034548;28;19909;-69
2023/01/21 01:02:45;;;;;;;;;;;;;;;;;;5035220;28;19912;-69
2023/01/21 01:05:13;;;;;;;;;;;;;;;;;;5033309;28;19917;-69
2023/01/21 01:07:42;;;;;;;;;;;;;;;;;;5033171;28;19905;-69
2023/01/21 01:10:08;;;;;;;;;;;;;;;;;;5034449;28;20289;-69
2023/01/21 01:12:34;;;;;;;;;;;;;;;;;;5033252;28;19905;-69
2023/01/21 01:15:00;;;;;;;;;;;;;;;;;;5034353;28;19912;-69
2023/01/21 01:17:27;;;;;;;;;;;;;;;;;;5034516;28;19909;-69
2023/01/21 01:19:53;;;;;;;;;;;;;;;;;;5034721;28;19911;-69
2023/01/21 01:22:19;;;;;;;;;;;;;;;;;;5034246;28;19905;-69
2023/01/21 01:24:45;;;;;;;;;;;;;;;;;;5033139;28;19913;-69
2023/01/21 01:27:11;;;;;;;;;;;;;;;;;;5033965;28;19909;-69
2023/01/21 01:29:37;;;;;;;;;;;;;;;;;;5032953;28;19935;-69
2023/01/21 01:32:04;;;;;;;;;;;;;;;;;;5034077;28;19909;-69
2023/01/21 01:34:30;;;;;;;;;;;;;;;;;;5033799;28;20366;-69
2023/01/21 01:36:56;;;;;;;;;;;;;;;;;;5034422;28;19905;-69
2023/01/21 01:39:22;;;;;;;;;;;;;;;;;;5032848;28;20289;-69
2023/01/21 01:41:48;;;;;;;;;;;;;;;;;;5033650;28;19905;-69
2023/01/21 01:44:15;;;;;;;;;;;;;;;;;;5033691;28;19913;-69
2023/01/21 01:46:41;;;;;;;;;;;;;;;;;;5034178;28;19905;-69
2023/01/21 01:49:07;;;;;;;;;;;;;;;;;;5034317;28;20332;-69
2023/01/21 01:51:33;;;;;;;;;;;;;;;;;;5032431;28;19909;-69
2023/01/21 01:53:59;;;;;;;;;;;;;;;;;;5033517;28;19917;-69
2023/01/21 01:56:26;;;;;;;;;;;;;;;;;;5033621;28;19959;-69
2023/01/21 01:58:52;;;;;;;;;;;;;;;;;;5033627;28;19916;-69
2023/01/21 02:01:18;;;;;;;;;;;;;;;;;;5033996;28;19965;-69
2023/01/21 02:03:44;;;;;;;;;;;;;;;;;;5032265;28;19913;-69
2023/01/21 02:06:11;;;;;;;;;;;;;;;;;;5033530;28;19911;-69
2023/01/21 02:08:37;;;;;;;;;;;;;;;;;;5033232;28;20463;-69
2023/01/21 02:11:03;;;;;;;;;;;;;;;;;;5033003;28;19938;-69
2023/01/21 02:13:29;;;;;;;;;;;;;;;;;;5033145;28;19913;-68
2023/01/21 02:15:55;;;;;;;;;;;;;;;;;;5031960;28;20362;-69
2023/01/21 02:18:21;;;;;;;;;;;;;;;;;;5033620;28;19983;-69
2023/01/21 02:20:48;;;;;;;;;;;;;;;;;;5033361;28;19905;-69
2023/01/21 02:23:14;;;;;;;;;;;;;;;;;;5033393;28;19905;-69
2023/01/21 02:25:40;;;;;;;;;;;;;;;;;;5032812;28;19909;-69
2023/01/21 02:28:06;;;;;;;;;;;;;;;;;;5033277;28;19911;-69
2023/01/21 02:30:32;;;;;;;;;;;;;;;;;;5033047;28;19913;-69
2023/01/21 02:32:59;;;;;;;;;;;;;;;;;;5033032;28;19927;-69
2023/01/21 02:35:25;;;;;;;;;;;;;;;;;;5033023;28;19913;-69
2023/01/21 02:37:51;;;;;;;;;;;;;;;;;;5033400;28;19911;-69
2023/01/21 02:40:17;;;;;;;;;;;;;;;;;;5032934;28;19911;-69
2023/01/21 02:42:44;;;;;;;;;;;;;;;;;;5032921;28;19915;-69
2023/01/21 02:45:10;;;;;;;;;;;;;;;;;;5032778;28;19909;-69
2023/01/21 02:47:36;;;;;;;;;;;;;;;;;;5032209;28;19909;-69
2023/01/21 02:50:02;;;;;;;;;;;;;;;;;;5033102;28;19912;-69
2023/01/21 02:52:28;;;;;;;;;;;;;;;;;;5032565;28;19924;-69
2023/01/21 02:54:55;;;;;;;;;;;;;;;;;;5032319;28;19959;-69
2023/01/21 02:57:21;;;;;;;;;;;;;;;;;;5032972;28;19905;-69
2023/01/21 02:59:47;;;;;;;;;;;;;;;;;;5031594;28;19914;-69
2023/01/21 03:02:13;;;;;;;;;;;;;;;;;;5031242;28;19905;-69
2023/01/21 03:04:39;;;;;;;;;;;;;;;;;;5032586;28;20300;-69
2023/01/21 03:07:06;;;;;;;;;;;;;;;;;;5032755;28;19909;-69
2023/01/21 03:09:32;;;;;;;;;;;;;;;;;;5031989;28;19937;-69
2023/01/21 03:11:58;;;;;;;;;;;;;;;;;;5032527;28;20366;-69
2023/01/21 03:17:09;;;;;;;;;;;;;;;;;;5032518;28;19915;-69
2023/01/21 03:19:35;;;;;;;;;;;;;;;;;;5032287;28;19911;-69
2023/01/21 03:22:03;;;;;;;;;;;;;;;;;;5032314;28;20301;-69
2023/01/21 03:24:29;;;;;;;;;;;;;;;;;;5032022;28;19911;-69
2023/01/21 03:26:57;;;;;;;;;;;;;;;;;;5032744;28;20281;-69
2023/01/21 03:29:24;;;;;;;;;;;;;;;;;;5032616;28;19912;-69
2023/01/21 03:31:50;;;;;;;;;;;;;;;;;;5032223;28;20404;-69
2023/01/21 03:34:16;;;;;;;;;;;;;;;;;;5032234;28;19921;-69
2023/01/21 03:36:42;;;;;;;;;;;;;;;;;;5031095;28;19909;-69
2023/01/21 03:39:08;;;;;;;;;;;;;;;;;;5031909;28;20029;-69
2023/01/21 03:41:35;;;;;;;;;;;;;;;;;;5032410;28;19905;-69
2023/01/21 03:44:01;;;;;;;;;;;;;;;;;;5031196;28;19905;-69
2023/01/21 03:46:27;;;;;;;;;;;;;;;;;;5031991;28;19905;-69
2023/01/21 03:48:54;;;;;;;;;;;;;;;;;;5032091;28;19909;-69
2023/01/21 03:51:20;;;;;;;;;;;;;;;;;;5032109;28;20362;-69
2023/01/21 03:53:46;;;;;;;;;;;;;;;;;;5031328;28;19924;-69
2023/01/21 03:56:12;;;;;;;;;;;;;;;;;;5031952;28;19919;-69
2023/01/21 03:58:38;;;;;;;;;;;;;;;;;;5033977;28;20267;-69
2023/01/21 04:01:05;;;;;;;;;;;;;;;;;;5034812;28;19911;-69
2023/01/21 04:03:31;;;;;;;;;;;;;;;;;;5035663;28;19911;-69
2023/01/21 04:05:57;;;;;;;;;;;;;;;;;;5035751;28;19905;-69
2023/01/21 04:08:23;;;;;;;;;;;;;;;;;;5035578;28;19913;-69
2023/01/21 04:10:49;;;;;;;;;;;;;;;;;;5035654;28;19920;-70
2023/01/21 04:13:16;;;;;;;;;;;;;;;;;;5035499;28;20357;-69
2023/01/21 04:15:42;;;;;;;;;;;;;;;;;;5035836;28;19913;-69
2023/01/21 04:18:08;;;;;;;;;;;;;;;;;;5035599;28;19919;-69
2023/01/21 04:20:34;;;;;;;;;;;;;;;;;;5035503;28;19913;-69
2023/01/21 04:23:00;;;;;;;;;;;;;;;;;;5035225;28;19905;-69
2023/01/21 04:25:26;;;;;;;;;;;;;;;;;;5035242;28;19909;-69
2023/01/21 04:27:53;;;;;;;;;;;;;;;;;;5035747;28;19909;-69
2023/01/21 04:30:19;;;;;;;;;;;;;;;;;;5035338;28;19905;-69
2023/01/21 04:32:45;;;;;;;;;;;;;;;;;;5034018;28;19905;-69
2023/01/21 04:35:11;;;;;;;;;;;;;;;;;;5034741;28;19913;-69
2023/01/21 04:37:37;;;;;;;;;;;;;;;;;;5033738;28;19905;-69
2023/01/21 04:40:04;;;;;;;;;;;;;;;;;;5035428;28;19927;-68
2023/01/21 04:42:30;;;;;;;;;;;;;;;;;;5035133;28;20308;-69
2023/01/21 04:44:56;;;;;;;;;;;;;;;;;;5035118;28;19905;-69
2023/01/21 04:47:22;;;;;;;;;;;;;;;;;;5033815;28;19915;-69
2023/01/21 04:49:48;;;;;;;;;;;;;;;;;;5034542;28;20289;-69
2023/01/21 04:52:14;;;;;;;;;;;;;;;;;;5034715;28;19905;-69
2023/01/21 04:54:41;;;;;;;;;;;;;;;;;;5034804;28;20296;-69
2023/01/21 04:57:07;;;;;;;;;;;;;;;;;;5035119;28;19905;-69
2023/01/21 04:59:33;;;;;;;;;;;;;;;;;;5035023;28;19931;-69
2023/01/21 05:01:59;;;;;;;;;;;;;;;;;;5033594;28;19950;-69
2023/01/21 05:04:25;;;;;;;;;;;;;;;;;;5032859;28;20292;-69
2023/01/21 05:06:52;;;;;;;;;;;;;;;;;;5034800;28;19954;-69
2023/01/21 05:09:18;;;;;;;;;;;;;;;;;;5034094;28;19972;-69
2023/01/21 05:11:44;;;;;;;;;;;;;;;;;;5034346;28;20358;-69
2023/01/21 05:14:10;;;;;;;;;;;;;;;;;;5034404;28;19920;-69
2023/01/21 05:16:36;;;;;;;;;;;;;;;;;;5034705;28;19915;-69
2023/01/21 05:19:02;;;;;;;;;;;;;;;;;;5034017;28;19905;-69
2023/01/21 05:21:29;;;;;;;;;;;;;;;;;;5034298;28;19908;-69
2023/01/21 05:23:55;;;;;;;;;;;;;;;;;;5034268;28;19911;-69
2023/01/21 05:26:21;;;;;;;;;;;;;;;;;;5034120;28;19905;-69
2023/01/21 05:28:47;;;;;;;;;;;;;;;;;;5034120;28;19905;-69
2023/01/21 05:31:13;;;;;;;;;;;;;;;;;;5034252;28;19908;-69
2023/01/21 05:33:42;;;;;;;;;;;;;;;;;;5033666;28;19917;-69
2023/01/21 05:36:08;;;;;;;;;;;;;;;;;;5033958;28;19934;-69
2023/01/21 05:38:35;;;;;;;;;;;;;;;;;;5033985;28;19905;-68
2023/01/21 05:41:01;;;;;;;;;;;;;;;;;;5034026;28;19909;-69
2023/01/21 05:43:27;;;;;;;;;;;;;;;;;;5033888;28;19911;-69
2023/01/21 05:45:53;;;;;;;;;;;;;;;;;;5034044;28;19909;-69
2023/01/21 05:48:19;;;;;;;;;;;;;;;;;;5033535;28;19908;-69
2023/01/21 05:50:46;;;;;;;;;;;;;;;;;;5033694;28;20380;-69
2023/01/21 05:53:12;;;;;;;;;;;;;;;;;;5033632;28;19921;-69
2023/01/21 05:55:38;;;;;;;;;;;;;;;;;;5033586;28;19919;-69
2023/01/21 05:58:04;;;;;;;;;;;;;;;;;;5033641;28;19905;-69
2023/01/21 06:00:30;;;;;;;;;;;;;;;;;;5033637;28;19911;-69
2023/01/21 06:02:57;;;;;;;;;;;;;;;;;;5033159;28;19905;-69
2023/01/21 06:05:23;;;;;;;;;;;;;;;;;;5033807;28;19905;-69
2023/01/21 06:07:49;;;;;;;;;;;;;;;;;;5033541;28;20288;-69
2023/01/21 06:10:15;;;;;;;;;;;;;;;;;;5033339;28;19908;-69
2023/01/21 06:12:41;;;;;;;;;;;;;;;;;;5033272;28;19927;-69
2023/01/21 06:15:08;;;;;;;;;;;;;;;;;;5033254;28;19917;-69
2023/01/21 06:17:34;;;;;;;;;;;;;;;;;;5032970;28;19905;-69
2023/01/21 06:20:00;;;;;;;;;;;;;;;;;;5033596;28;19905;-69
2023/01/21 06:22:26;;;;;;;;;;;;;;;;;;5032536;28;19931;-69
2023/01/21 06:24:52;;;;;;;;;;;;;;;;;;5033225;28;19909;-69
2023/01/21 06:27:18;;;;;;;;;;;;;;;;;;5031853;28;20335;-69
2023/01/21 06:29:45;;;;;;;;;;;;;;;;;;5033381;28;19904;-69
2023/01/21 06:32:11;;;;;;;;;;;;;;;;;;5031788;28;19905;-69
2023/01/21 06:34:37;;;;;;;;;;;;;;;;;;5032879;28;19917;-69
2023/01/21 06:37:03;;;;;;;;;;;;;;;;;;5032813;28;20104;-69
2023/01/21 06:39:29;;;;;;;;;;;;;;;;;;5033135;28;19912;-69
2023/01/21 06:41:56;;;;;;;;;;;;;;;;;;5033296;28;19909;-69
2023/01/21 06:44:22;;;;;;;;;;;;;;;;;;5032625;28;19915;-69
2023/01/21 06:46:48;;;;;;;;;;;;;;;;;;5032839;28;19905;-69
2023/01/21 06:49:14;;;;;;;;;;;;;;;;;;5032794;28;19904;-69
2023/01/21 06:51:41;;;;;;;;;;;;;;;;;;5032530;28;19951;-69
2023/01/21 06:54:08;;;;;;;;;;;;;;;;;;5032486;28;19917;-69
2023/01/21 06:56:35;;;;;;;;;;;;;;;;;;5033170;28;19927;-69
2023/01/21 06:59:02;;;;;;;;;;;;;;;;;;5032659;28;20389;-69
2023/01/21 07:01:28;;;;;;;;;;;;;;;;;;5032502;28;19976;-69
2023/01/21 07:03:54;;;;;;;;;;;;;;;;;;5032622;28;19905;-69
2023/01/21 07:06:24;;;;;;;;;;;;;;;;;;5032442;28;19934;-69
2023/01/21 07:08:50;;;;;;;;;;;;;;;;;;5032332;28;19905;-70
2023/01/21 07:11:16;;;;;;;;;;;;;;;;;;5031557;28;19909;-69
2023/01/21 07:13:42;;;;;;;;;;;;;;;;;;5032408;28;20343;-69
2023/01/21 07:16:09;;;;;;;;;;;;;;;;;;5032204;28;19909;-69
2023/01/21 07:18:35;;;;;;;;;;;;;;;;;;5032848;28;19905;-69
2023/01/21 07:21:01;;;;;;;;;;;;;;;;;;5031082;28;19909;-69
2023/01/21 07:23:29;;;;;;;;;;;;;;;;;;5032421;28;19912;-69
2023/01/21 07:25:55;;;;;;;;;;;;;;;;;;5032655;28;19912;-69
2023/01/21 07:28:21;;;;;;;;;;;;;;;;;;5032549;28;19905;-69
2023/01/21 07:30:47;;;;;;;;;;;;;;;;;;5031889;28;19915;-69
2023/01/21 07:33:14;;;;;;;;;;;;;;;;;;5033735;28;20374;-69
2023/01/21 07:35:40;;;;;;;;;;;;;;;;;;5036274;28;19913;-69
2023/01/21 07:38:06;;;;;;;;;;;;;;;;;;5036483;28;19905;-69
2023/01/21 07:40:32;;;;;;;;;;;;;;;;;;5036427;28;19954;-69
2023/01/21 07:42:58;;;;;;;;;;;;;;;;;;5036123;28;20358;-69
2023/01/21 07:45:24;;;;;;;;;;;;;;;;;;5035638;28;19905;-70
2023/01/21 07:47:51;;;;;;;;;;;;;;;;;;5036312;28;20386;-70
2023/01/21 07:50:17;;;;;;;;;;;;;;;;;;5036200;28;19905;-69
2023/01/21 07:52:43;;;;;;;;;;;;;;;;;;5036034;28;19917;-69
2023/01/21 07:55:09;;;;;;;;;;;;;;;;;;5036064;28;20240;-69
2023/01/21 07:57:36;;;;;;;;;;;;;;;;;;5035888;28;19905;-69
2023/01/21 08:00:02;;;;;;;;;;;;;;;;;;5035698;28;20361;-69
2023/01/21 08:02:28;;;;;;;;;;;;;;;;;;5036147;28;19905;-69
2023/01/21 08:04:54;;;;;;;;;;;;;;;;;;5035718;28;19913;-69
2023/01/21 08:07:20;;;;;;;;;;;;;;;;;;5035831;28;19911;-69
2023/01/21 08:09:46;;;;;;;;;;;;;;;;;;5035929;28;19908;-69
2023/01/21 08:12:13;;;;;;;;;;;;;;;;;;5035630;28;19905;-69
2023/01/21 08:14:39;;;;;;;;;;;;;;;;;;5035149;28;19919;-69
2023/01/21 08:17:05;;;;;;;;;;;;;;;;;;5035574;28;19905;-69
2023/01/21 08:19:31;;;;;;;;;;;;;;;;;;5035732;28;19905;-69
2023/01/21 08:21:57;;;;;;;;;;;;;;;;;;5035766;28;19909;-69
2023/01/21 08:24:24;;;;;;;;;;;;;;;;;;5035516;28;20305;-69
2023/01/21 08:26:50;;;;;;;;;;;;;;;;;;5035665;28;19911;-69
2023/01/21 08:29:16;;;;;;;;;;;;;;;;;;5035032;28;19905;-69
2023/01/21 08:31:42;;;;;;;;;;;;;;;;;;5034206;28;20011;-69
2023/01/21 08:34:08;;;;;;;;;;;;;;;;;;5035167;28;19913;-69
2023/01/21 08:36:37;;;;;;;;;;;;;;;;;;5035661;28;19905;-69
2023/01/21 08:39:06;;;;;;;;;;;;;;;;;;5035025;28;19909;-69
2023/01/21 08:41:33;;;;;;;;;;;;;;;;;;5035057;28;19913;-70
2023/01/21 08:43:59;;;;;;;;;;;;;;;;;;5034677;28;20292;-69
2023/01/21 08:46:25;;;;;;;;;;;;;;;;;;5034379;28;19905;-69
2023/01/21 08:48:51;;;;;;;;;;;;;;;;;;5034918;28;20339;-69
2023/01/21 08:51:17;;;;;;;;;;;;;;;;;;5035305;28;19909;-69
2023/01/21 08:53:43;;;;;;;;;;;;;;;;;;5034478;28;19920;-69
2023/01/21 08:56:10;;;;;;;;;;;;;;;;;;5034628;28;19917;-69
2023/01/21 08:58:36;;;;;;;;;;;;;;;;;;5034934;28;19905;-69
2023/01/21 09:01:02;;;;;;;;;;;;;;;;;;5034865;28;19909;-69
2023/01/21 09:03:28;;;;;;;;;;;;;;;;;;5034585;28;20384;-69
2023/01/21 09:05:54;;;;;;;;;;;;;;;;;;5034695;28;19904;-69
2023/01/21 09:08:21;;;;;;;;;;;;;;;;;;5034839;28;19905;-69
2023/01/21 09:11:02;;;;;;;;;;;;;;;;;;5034513;28;19986;-69
2023/01/21 09:13:28;;;;;;;;;;;;;;;;;;5034380;28;19909;-69
2023/01/21 09:15:55;;;;;;;;;;;;;;;;;;5034491;28;20308;-69
2023/01/21 09:18:21;;;;;;;;;;;;;;;;;;5034365;28;19911;-69
2023/01/21 09:20:47;;;;;;;;;;;;;;;;;;5034431;28;19905;-69
2023/01/21 09:23:26;;;;;;;;;;;;;;;;;;5034342;28;19955;-69
2023/01/21 09:25:53;;;;;;;;;;;;;;;;;;5033917;28;20274;-69
2023/01/21 09:28:19;;;;;;;;;;;;;;;;;;5034440;28;19935;-69
2023/01/21 09:30:45;;;;;;;;;;;;;;;;;;5034517;28;19909;-69
2023/01/21 09:33:11;;;;;;;;;;;;;;;;;;5034284;28;19959;-69
2023/01/21 09:35:37;;;;;;;;;;;;;;;;;;5033990;28;20275;-69
2023/01/21 09:38:03;;;;;;;;;;;;;;;;;;5034257;28;19911;-69
2023/01/21 09:40:30;;;;;;;;;;;;;;;;;;5033613;28;19905;-69
2023/01/21 09:42:56;;;;;;;;;;;;;;;;;;5033776;28;19905;-69
2023/01/21 09:45:22;;;;;;;;;;;;;;;;;;5034008;28;19909;-69
2023/01/21 09:47:48;;;;;;;;;;;;;;;;;;5032635;28;20288;-70
2023/01/21 09:50:15;;;;;;;;;;;;;;;;;;5034176;28;19950;-69
2023/01/21 09:52:41;;;;;;;;;;;;;;;;;;5033901;28;19909;-69
2023/01/21 09:55:08;;;;;;;;;;;;;;;;;;5033525;28;19924;-69
2023/01/21 09:57:34;;;;;;;;;;;;;;;;;;5033371;28;20358;-70
2023/01/21 10:00:00;;;;;;;;;;;;;;;;;;5030918;28;19909;-69
2023/01/21 10:02:27;;;;;;;;;;;;;;;;;;5034091;28;19921;-69
2023/01/21 10:04:54;;;;;;;;;;;;;;;;;;5031930;28;20357;-69
2023/01/21 10:07:20;;;;;;;;;;;;;;;;;;5032860;28;19905;-69
2023/01/21 10:09:46;;;;;;;;;;;;;;;;;;5032039;28;19913;-69
2023/01/21 10:12:12;;;;;;;;;;;;;;;;;;5032450;28;20335;-69
2023/01/21 10:14:38;;;;;;;;;;;;;;;;;;5032188;28;20373;-68
2023/01/21 10:17:05;;;;;;;;;;;;;;;;;;5032365;28;19909;-70
2023/01/21 10:19:32;;;;;;;;;;;;;;;;;;5032362;28;19915;-70
2023/01/21 10:21:59;;;;;;;;;;;;;;;;;;5032511;28;19913;-69
2023/01/21 10:24:25;;;;;;;;;;;;;;;;;;5031559;28;20380;-70
2023/01/21 10:26:51;;;;;;;;;;;;;;;;;;5032400;28;19911;-69
2023/01/21 10:29:17;;;;;;;;;;;;;;;;;;5032213;28;19911;-69
2023/01/21 10:31:44;;;;;;;;;;;;;;;;;;5032102;28;19915;-69
2023/01/21 10:34:10;;;;;;;;;;;;;;;;;;5032207;28;19913;-69
2023/01/21 10:36:36;;;;;;;;;;;;;;;;;;5032433;28;19909;-69
2023/01/21 10:39:02;;;;;;;;;;;;;;;;;;5032493;28;20153;-69
2023/01/21 10:41:28;;;;;;;;;;;;;;;;;;5032481;28;19904;-69
2023/01/21 10:43:55;;;;;;;;;;;;;;;;;;5031468;28;19909;-69
2023/01/21 10:46:21;;;;;;;;;;;;;;;;;;5031493;28;19935;-69
2023/01/21 10:48:47;;;;;;;;;;;;;;;;;;5031696;28;19905;-70
2023/01/21 10:51:13;;;;;;;;;;;;;;;;;;5031860;28;19909;-69
2023/01/21 10:53:39;;;;;;;;;;;;;;;;;;5031156;28;20316;-69
2023/01/21 10:56:06;;;;;;;;;;;;;;;;;;5031669;28;19919;-70
2023/01/21 10:58:32;;;;;;;;;;;;;;;;;;5031893;28;19909;-69
2023/01/21 11:00:58;;;;;;;;;;;;;;;;;;5030648;28;19909;-69
2023/01/21 11:03:25;;;;;;;;;;;;;;;;;;5030111;28;19958;-69
2023/01/21 11:05:51;;;;;;;;;;;;;;;;;;5031854;28;19909;-70
2023/01/21 11:08:17;;;;;;;;;;;;;;;;;;5030500;28;20382;-69
2023/01/21 11:10:43;;;;;;;;;;;;;;;;;;5031801;28;19909;-70
2023/01/21 11:13:09;;;;;;;;;;;;;;;;;;5031841;28;19905;-69
2023/01/21 11:15:35;;;;;;;;;;;;;;;;;;5031444;28;19917;-70
2023/01/21 11:18:02;;;;;;;;;;;;;;;;;;5031529;28;20288;-69
2023/01/21 11:20:28;;;;;;;;;;;;;;;;;;5031626;28;19911;-69
2023/01/21 11:22:54;;;;;;;;;;;;;;;;;;5031173;28;19909;-69
2023/01/21 11:25:20;;;;;;;;;;;;;;;;;;5031511;28;19909;-70
2023/01/21 11:27:46;;;;;;;;;;;;;;;;;;5031427;28;19913;-71
2023/01/21 11:30:12;;;;;;;;;;;;;;;;;;5029697;28;20546;-70
2023/01/21 11:32:39;;;;;;;;;;;;;;;;;;5032015;28;19920;-70
2023/01/21 11:35:05;;;;;;;;;;;;;;;;;;5032153;28;19917;-71
2023/01/21 11:37:31;;;;;;;;;;;;;;;;;;5031732;28;19905;-71
2023/01/21 11:39:57;;;;;;;;;;;;;;;;;;5032207;28;19913;-71
2023/01/21 11:42:24;;;;;;;;;;;;;;;;;;5032285;28;20328;-71
2023/01/21 11:44:50;;;;;;;;;;;;;;;;;;5032485;28;19913;-70
2023/01/21 11:47:16;;;;;;;;;;;;;;;;;;5032338;28;19912;-70
2023/01/21 11:49:42;;;;;;;;;;;;;;;;;;5032030;28;20271;-70
2023/01/21 11:52:08;;;;;;;;;;;;;;;;;;5031758;28;19955;-70
2023/01/21 11:54:34;;;;;;;;;;;;;;;;;;5031854;28;19913;-70
2023/01/21 11:57:01;;;;;;;;;;;;;;;;;;5032062;28;19909;-69
2023/01/21 11:59:27;;;;;;;;;;;;;;;;;;5032127;28;19905;-70
2023/01/21 12:01:53;;;;;;;;;;;;;;;;;;5032051;28;20288;-70
2023/01/21 12:04:19;;;;;;;;;;;;;;;;;;5030999;28;19912;-69
2023/01/21 12:06:46;;;;;;;;;;;;;;;;;;5031635;28;19916;-69
2023/01/21 12:09:12;;;;;;;;;;;;;;;;;;5031947;28;19905;-70
2023/01/21 12:11:38;;;;;;;;;;;;;;;;;;5032183;28;19904;-70
2023/01/21 12:14:04;;;;;;;;;;;;;;;;;;5031794;28;19924;-69
2023/01/21 12:16:31;;;;;;;;;;;;;;;;;;5031936;28;20387;-70
2023/01/21 12:18:57;;;;;;;;;;;;;;;;;;5032643;28;19904;-70
2023/01/21 12:21:23;;;;;;;;;;;;;;;;;;5035270;28;20339;-70
2023/01/21 12:23:49;;;;;;;;;;;;;;;;;;5035767;28;19908;-70
2023/01/21 12:26:16;;;;;;;;;;;;;;;;;;5035422;28;20353;-69
2023/01/21 12:28:42;;;;;;;;;;;;;;;;;;5035764;28;19912;-70
2023/01/21 12:31:08;;;;;;;;;;;;;;;;;;5035247;28;20282;-70
2023/01/21 12:33:34;;;;;;;;;;;;;;;;;;5035168;28;19908;-69
2023/01/21 12:36:00;;;;;;;;;;;;;;;;;;5035350;28;19913;-70
2023/01/21 12:38:26;;;;;;;;;;;;;;;;;;5035275;28;20742;-70
2023/01/21 12:40:53;;;;;;;;;;;;;;;;;;5035211;28;20431;-70
2023/01/21 12:43:19;;;;;;;;;;;;;;;;;;5035311;28;19954;-69
2023/01/21 12:45:46;;;;;;;;;;;;;;;;;;5035025;28;19913;-70
2023/01/21 12:48:12;;;;;;;;;;;;;;;;;;5034808;28;20289;-70
2023/01/21 12:50:40;;;;;;;;;;;;;;;;;;5035394;28;19911;-69
2023/01/21 12:53:06;;;;;;;;;;;;;;;;;;5034888;28;19927;-69
2023/01/21 12:55:32;;;;;;;;;;;;;;;;;;5034840;28;19913;-70
2023/01/21 12:57:58;;;;;;;;;;;;;;;;;;5034853;28;19911;-69
2023/01/21 13:00:24;;;;;;;;;;;;;;;;;;5034999;28;19909;-70
2023/01/21 13:02:51;;;;;;;;;;;;;;;;;;5034171;28;20380;-70
2023/01/21 13:05:17;;;;;;;;;;;;;;;;;;5034923;28;19905;-70
2023/01/21 13:07:43;;;;;;;;;;;;;;;;;;5033361;28;19913;-70
2023/01/21 13:10:09;;;;;;;;;;;;;;;;;;5034480;28;19911;-70
2023/01/21 13:12:35;;;;;;;;;;;;;;;;;;5034578;28;20376;-70
2023/01/21 13:15:01;;;;;;;;;;;;;;;;;;5034438;28;19917;-70
2023/01/21 13:17:28;;;;;;;;;;;;;;;;;;5034605;28;19916;-70
2023/01/21 13:19:54;;;;;;;;;;;;;;;;;;5034577;28;19905;-70
2023/01/21 13:22:20;;;;;;;;;;;;;;;;;;5034603;28;19905;-70
2023/01/21 13:24:46;;;;;;;;;;;;;;;;;;5034318;28;20557;-70
2023/01/21 13:27:13;;;;;;;;;;;;;;;;;;5034675;28;19911;-71
2023/01/21 13:29:39;;;;;;;;;;;;;;;;;;5034242;28;19905;-70
2023/01/21 13:32:05;;;;;;;;;;;;;;;;;;5033347;28;19905;-70
2023/01/21 13:34:31;;;;;;;;;;;;;;;;;;5034091;28;19917;-69
2023/01/21 13:36:57;;;;;;;;;;;;;;;;;;5033672;28;19909;-70
2023/01/21 13:39:23;;;;;;;;;;;;;;;;;;5034471;28;19939;-70
2023/01/21 13:41:50;;;;;;;;;;;;;;;;;;5034227;28;20292;-70
2023/01/21 13:44:16;;;;;;;;;;;;;;;;;;5034134;28;19905;-70
2023/01/21 13:46:42;;;;;;;;;;;;;;;;;;5032538;28;19905;-70
2023/01/21 13:49:08;;;;;;;;;;;;;;;;;;5034076;28;19912;-70
2023/01/21 13:51:34;;;;;;;;;;;;;;;;;;5033741;28;19909;-70
2023/01/21 13:54:02;;;;;;;;;;;;;;;;;;5033634;28;19923;-70
2023/01/21 13:56:28;;;;;;;;;;;;;;;;;;5033995;28;19905;-70
2023/01/21 13:58:54;;;;;;;;;;;;;;;;;;5034069;28;19912;-70
2023/01/21 14:01:21;;;;;;;;;;;;;;;;;;5033550;28;19912;-69
2023/01/21 14:03:47;;;;;;;;;;;;;;;;;;5033458;28;20297;-69
2023/01/21 14:06:13;;;;;;;;;;;;;;;;;;5033505;28;19905;-70
2023/01/21 14:08:39;;;;;;;;;;;;;;;;;;5033567;28;19916;-69
2023/01/21 14:11:05;;;;;;;;;;;;;;;;;;5033309;28;20359;-70
2023/01/21 14:13:31;;;;;;;;;;;;;;;;;;5032369;28;19911;-70
2023/01/21 14:15:58;;;;;;;;;;;;;;;;;;5033019;28;19983;-70
2023/01/21 14:18:24;;;;;;;;;;;;;;;;;;5033216;28;19905;-70
2023/01/21 14:20:50;;;;;;;;;;;;;;;;;;5033256;28;19927;-70
2023/01/21 14:23:16;;;;;;;;;;;;;;;;;;5033235;28;19909;-70
2023/01/21 14:25:42;;;;;;;;;;;;;;;;;;5033065;28;19913;-69
2023/01/21 14:28:09;;;;;;;;;;;;;;;;;;5032914;28;20327;-70
2023/01/21 14:30:35;;;;;;;;;;;;;;;;;;5033082;28;19911;-70
2023/01/21 14:33:01;;;;;;;;;;;;;;;;;;5032951;28;19905;-70
2023/01/21 14:35:27;;;;;;;;;;;;;;;;;;5033056;28;19917;-70
2023/01/21 14:37:53;;;;;;;;;;;;;;;;;;5033125;28;19912;-70
2023/01/21 14:40:19;;;;;;;;;;;;;;;;;;5033059;28;19927;-70
2023/01/21 14:42:46;;;;;;;;;;;;;;;;;;5032118;28;19947;-70
2023/01/21 14:45:12;;;;;;;;;;;;;;;;;;5032812;28;19905;-70
2023/01/21 14:47:38;;;;;;;;;;;;;;;;;;5032865;28;19905;-70
2023/01/21 14:50:05;;;;;;;;;;;;;;;;;;5031691;28;19912;-70
2023/01/21 14:52:31;;;;;;;;;;;;;;;;;;5032373;28;19929;-69
2023/01/21 14:54:57;;;;;;;;;;;;;;;;;;5032625;28;19942;-70
2023/01/21 14:57:23;;;;;;;;;;;;;;;;;;5032632;28;20297;-70
2023/01/21 14:59:49;;;;;;;;;;;;;;;;;;5032303;28;19909;-70
2023/01/21 15:02:16;;;;;;;;;;;;;;;;;;5032565;28;20255;-69
2023/01/21 15:04:42;;;;;;;;;;;;;;;;;;5032940;28;19912;-70
2023/01/21 15:07:08;;;;;;;;;;;;;;;;;;5032402;28;19912;-70
2023/01/21 15:09:34;;;;;;;;;;;;;;;;;;5032313;28;20273;-70
2023/01/21 15:12:01;;;;;;;;;;;;;;;;;;5032738;28;20389;-69
2023/01/21 15:14:27;;;;;;;;;;;;;;;;;;5031976;28;20412;-69
2023/01/21 15:16:53;;;;;;;;;;;;;;;;;;5032448;28;20026;-70
2023/01/21 15:19:19;;;;;;;;;;;;;;;;;;5032416;28;19905;-69
2023/01/21 15:21:46;;;;;;;;;;;;;;;;;;5032618;28;19905;-70
2023/01/21 15:24:12;;;;;;;;;;;;;;;;;;5032304;28;19911;-70
2023/01/21 15:26:41;;;;;;;;;;;;;;;;;;5032474;28;19905;-70
2023/01/21 15:29:08;;;;;;;;;;;;;;;;;;5031862;28;20349;-70
2023/01/21 15:31:34;;;;;;;;;;;;;;;;;;5032239;28;20373;-70
2023/01/21 15:34:00;;;;;;;;;;;;;;;;;;5032031;28;19909;-70
2023/01/21 15:36:27;;;;;;;;;;;;;;;;;;5032309;28;19909;-70
2023/01/21 15:38:53;;;;;;;;;;;;;;;;;;5032147;28;19911;-70
2023/01/21 15:41:19;;;;;;;;;;;;;;;;;;5032710;28;19905;-70
2023/01/21 15:43:48;;;;;;;;;;;;;;;;;;5031791;28;19905;-70
2023/01/21 15:46:14;;;;;;;;;;;;;;;;;;5032220;28;19905;-70
2023/01/21 15:48:40;;;;;;;;;;;;;;;;;;5032606;28;19913;-69
2023/01/21 15:51:07;;;;;;;;;;;;;;;;;;5032237;28;19912;-69
2023/01/21 15:53:33;;;;;;;;;;;;;;;;;;5032172;28;19943;-69
2023/01/21 15:55:59;;;;;;;;;;;;;;;;;;5036010;28;19913;-70
2023/01/21 15:58:25;;;;;;;;;;;;;;;;;;5035760;28;19911;-70
2023/01/21 16:00:51;;;;;;;;;;;;;;;;;;5036072;28;20354;-70
2023/01/21 16:03:17;;;;;;;;;;;;;;;;;;5036194;28;19905;-70
2023/01/21 16:05:44;;;;;;;;;;;;;;;;;;5034546;28;19919;-70
2023/01/21 16:08:10;;;;;;;;;;;;;;;;;;5035720;28;19909;-70
2023/01/21 16:10:36;;;;;;;;;;;;;;;;;;5035663;28;19912;-70
2023/01/21 16:13:02;;;;;;;;;;;;;;;;;;5035686;28;19904;-70
2023/01/21 16:15:28;;;;;;;;;;;;;;;;;;5035621;28;19913;-70
2023/01/21 16:17:54;;;;;;;;;;;;;;;;;;5035578;28;19905;-70
2023/01/21 16:20:21;;;;;;;;;;;;;;;;;;5034673;28;19905;-70
2023/01/21 16:22:47;;;;;;;;;;;;;;;;;;5035458;28;19909;-70
2023/01/21 16:25:13;;;;;;;;;;;;;;;;;;5035568;28;19908;-70
2023/01/21 16:27:39;;;;;;;;;;;;;;;;;;5035044;28;19905;-70
2023/01/21 16:30:06;;;;;;;;;;;;;;;;;;5035387;28;20312;-70
2023/01/21 16:32:32;;;;;;;;;;;;;;;;;;5035516;28;19909;-70
2023/01/21 16:34:58;;;;;;;;;;;;;;;;;;5035153;28;20289;-70
2023/01/21 16:37:24;;;;;;;;;;;;;;;;;;5035222;28;19911;-70
2023/01/21 16:39:51;;;;;;;;;;;;;;;;;;5035069;28;19916;-70
2023/01/21 16:42:17;;;;;;;;;;;;;;;;;;5034664;28;20366;-70